createdAt,value
2022-12-26T00:00:56.430Z,57.32
2022-12-26T00:03:42.563Z,57.39
2022-12-26T00:06:30.242Z,57.19
2022-12-26T00:09:17.474Z,57.71
2022-12-26T00:12:03.533Z,57.47
2022-12-26T00:14:50.601Z,57.10
2022-12-26T00:17:36.567Z,57.54
2022-12-26T00:20:22.337Z,57.61
2022-12-26T00:23:08.278Z,57.64
2022-12-26T00:25:54.403Z,57.44
2022-12-26T00:28:40.403Z,57.64
2022-12-26T00:31:29.452Z,57.55
2022-12-26T00:34:15.897Z,57.37
2022-12-26T00:37:01.857Z,57.44
2022-12-26T00:39:47.749Z,57.57
2022-12-26T00:42:33.554Z,57.67
2022-12-26T00:45:19.325Z,57.68
2022-12-26T00:48:05.415Z,57.78
2022-12-26T00:50:51.438Z,57.75
2022-12-26T00:53:37.574Z,57.51
2022-12-26T00:56:23.733Z,58.01
2022-12-26T00:59:09.962Z,58.31
2022-12-26T01:01:55.972Z,58.18
2022-12-26T01:04:42.092Z,57.90
2022-12-26T01:07:27.747Z,57.51
2022-12-26T01:10:13.940Z,57.57
2022-12-26T01:12:59.885Z,57.77
2022-12-26T01:15:53.247Z,57.65
2022-12-26T01:18:39.230Z,57.51
2022-12-26T01:21:24.981Z,57.58
2022-12-26T01:24:10.751Z,57.79
2022-12-26T01:26:56.641Z,57.63
2022-12-26T01:29:42.515Z,57.74
2022-12-26T01:32:28.504Z,57.68
2022-12-26T01:35:14.452Z,57.67
2022-12-26T01:38:00.401Z,57.73
2022-12-26T01:40:46.623Z,57.73
2022-12-26T01:44:00.285Z,58.01
2022-12-26T01:46:46.495Z,58.17
2022-12-26T01:49:37.938Z,57.83
2022-12-26T01:52:30.876Z,57.85
2022-12-26T01:55:17.289Z,58.17
2022-12-26T01:58:14.483Z,58.07
2022-12-26T02:01:02.212Z,57.81
2022-12-26T02:04:06.699Z,58.28
2022-12-26T02:06:52.989Z,58.10
2022-12-26T02:09:39.290Z,58.20
2022-12-26T02:12:38.813Z,57.98
2022-12-26T02:15:25.883Z,57.81
2022-12-26T02:18:11.774Z,57.90
2022-12-26T02:21:17.704Z,57.93
2022-12-26T02:24:15.762Z,58.10
2022-12-26T02:27:05.137Z,57.82
2022-12-26T02:30:08.794Z,57.72
2022-12-26T02:33:10.106Z,57.89
2022-12-26T02:35:58.973Z,57.96
2022-12-26T02:39:42.565Z,57.98
2022-12-26T02:42:54.237Z,58.03
2022-12-26T02:46:06.027Z,57.65
2022-12-26T02:48:51.676Z,57.76
2022-12-26T02:55:23.369Z,57.76
2022-12-26T02:58:36.854Z,57.75
2022-12-26T03:01:54.271Z,57.90
2022-12-26T03:04:59.591Z,57.97
2022-12-26T03:08:04.479Z,57.79
2022-12-26T03:11:10.736Z,58.01
2022-12-26T03:14:13.513Z,57.67
2022-12-26T03:17:22.401Z,58.01
2022-12-26T03:20:24.034Z,57.91
2022-12-26T03:23:12.808Z,57.75
2022-12-26T03:26:19.359Z,58.08
2022-12-26T03:29:30.141Z,57.82
2022-12-26T03:32:16.149Z,58.25
2022-12-26T03:35:02.137Z,57.87
2022-12-26T03:37:53.667Z,57.85
2022-12-26T03:41:15.077Z,58.00
2022-12-26T03:44:53.337Z,58.29
2022-12-26T03:48:02.395Z,58.05
2022-12-26T03:51:10.163Z,57.83
2022-12-26T03:54:26.759Z,57.97
2022-12-26T03:57:37.825Z,58.22
2022-12-26T04:00:42.295Z,58.13
2022-12-26T04:03:48.495Z,58.34
2022-12-26T04:07:04.767Z,57.96
2022-12-26T04:10:29.177Z,57.69
2022-12-26T04:13:41.041Z,57.93
2022-12-26T04:16:59.880Z,58.34
2022-12-26T04:20:21.684Z,58.11
2022-12-26T04:23:57.925Z,58.19
2022-12-26T04:27:04.100Z,58.62
2022-12-26T04:30:08.730Z,58.31
2022-12-26T04:33:16.147Z,58.13
2022-12-26T04:36:26.418Z,58.11
2022-12-26T04:39:33.022Z,58.30
2022-12-26T04:42:38.870Z,58.20
2022-12-26T04:45:26.442Z,58.25
2022-12-26T04:48:31.157Z,58.37
2022-12-26T04:51:17.352Z,58.24
2022-12-26T04:54:03.831Z,57.93
2022-12-26T04:56:50.005Z,58.52
2022-12-26T04:59:35.813Z,58.45
2022-12-26T05:02:40.439Z,58.15
2022-12-26T05:05:45.053Z,58.43
2022-12-26T05:08:59.237Z,58.28
2022-12-26T05:11:47.333Z,58.44
2022-12-26T05:14:36.006Z,58.52
2022-12-26T05:17:40.626Z,58.44
2022-12-26T05:20:49.715Z,58.45
2022-12-26T05:23:54.190Z,58.58
2022-12-26T05:26:58.642Z,58.61
2022-12-26T05:29:44.709Z,58.38
2022-12-26T05:32:49.223Z,58.48
2022-12-26T05:35:35.598Z,58.65
2022-12-26T05:38:21.527Z,58.78
2022-12-26T05:41:07.367Z,58.58
2022-12-26T05:43:53.383Z,58.64
2022-12-26T05:46:39.657Z,58.47
2022-12-26T05:49:25.317Z,58.58
2022-12-26T05:52:11.192Z,58.60
2022-12-26T05:54:57.114Z,58.76
2022-12-26T05:57:43.034Z,58.75
2022-12-26T06:00:30.107Z,58.45
2022-12-26T06:03:16.226Z,58.34
2022-12-26T06:06:02.147Z,58.71
2022-12-26T06:08:49.185Z,58.77
2022-12-26T06:11:35.154Z,58.56
2022-12-26T06:14:21.171Z,58.88
2022-12-26T06:17:06.871Z,58.46
2022-12-26T06:19:52.855Z,58.84
2022-12-26T06:22:38.611Z,58.41
2022-12-26T06:25:24.594Z,59.44
2022-12-26T06:28:10.281Z,59.17
2022-12-26T06:31:11.656Z,58.63
2022-12-26T06:33:58.463Z,58.85
2022-12-26T06:36:44.415Z,58.79
2022-12-26T06:39:30.173Z,59.07
2022-12-26T06:42:16.059Z,58.97
2022-12-26T06:45:01.787Z,59.25
2022-12-26T06:47:47.607Z,59.06
2022-12-26T06:50:36.442Z,58.63
2022-12-26T06:53:26.193Z,59.08
2022-12-26T06:56:14.715Z,58.62
2022-12-26T06:59:02.757Z,59.03
2022-12-26T07:01:49.118Z,58.98
2022-12-26T07:04:35.303Z,58.64
2022-12-26T07:07:21.092Z,58.85
2022-12-26T07:10:18.484Z,58.99
2022-12-26T07:13:13.670Z,58.79
2022-12-26T07:16:00.885Z,58.83
2022-12-26T07:18:46.958Z,58.85
2022-12-26T07:21:39.816Z,59.05
2022-12-26T07:24:26.311Z,59.07
2022-12-26T07:27:12.171Z,59.13
2022-12-26T07:29:58.122Z,58.95
2022-12-26T07:32:46.377Z,59.22
2022-12-26T07:35:32.377Z,58.93
2022-12-26T07:38:18.285Z,58.91
2022-12-26T07:41:22.513Z,59.01
2022-12-26T07:44:10.359Z,58.85
2022-12-26T07:46:56.950Z,59.02
2022-12-26T07:49:42.908Z,58.98
2022-12-26T07:52:28.712Z,58.95
2022-12-26T07:55:14.784Z,58.74
2022-12-26T07:58:00.923Z,58.96
2022-12-26T08:00:46.773Z,59.16
2022-12-26T08:03:33.631Z,59.09
2022-12-26T08:06:20.058Z,59.03
2022-12-26T08:09:06.147Z,58.99
2022-12-26T08:11:52.227Z,59.00
2022-12-26T08:14:38.309Z,59.43
2022-12-26T08:17:24.263Z,59.09
2022-12-26T08:20:10.416Z,59.29
2022-12-26T08:25:48.308Z,58.98
2022-12-26T08:28:34.790Z,59.23
2022-12-26T08:31:56.725Z,59.11
2022-12-26T08:34:42.587Z,58.69
2022-12-26T08:37:28.338Z,59.20
2022-12-26T08:40:15.515Z,59.29
2022-12-26T08:43:22.143Z,59.09
2022-12-26T08:46:12.134Z,58.57
2022-12-26T08:48:57.916Z,59.01
2022-12-26T08:51:43.830Z,59.08
2022-12-26T08:54:29.828Z,59.19
2022-12-26T08:57:15.932Z,58.81
2022-12-26T09:00:01.873Z,59.18
2022-12-26T09:02:48.225Z,59.35
2022-12-26T09:05:33.877Z,59.07
2022-12-26T09:08:19.762Z,59.28
2022-12-26T09:11:07.755Z,59.18
2022-12-26T09:13:55.121Z,59.26
2022-12-26T09:16:49.769Z,59.27
2022-12-26T09:19:36.911Z,59.00
2022-12-26T09:22:41.322Z,59.22
2022-12-26T09:25:27.756Z,58.90
2022-12-26T09:28:14.027Z,58.76
2022-12-26T09:31:01.656Z,58.75
2022-12-26T09:33:47.928Z,59.32
2022-12-26T09:36:38.180Z,58.98
2022-12-26T09:39:24.295Z,59.01
2022-12-26T09:42:31.804Z,59.19
2022-12-26T09:45:20.150Z,58.86
2022-12-26T09:48:12.391Z,58.76
2022-12-26T09:50:58.499Z,58.86
2022-12-26T09:53:47.728Z,58.83
2022-12-26T09:57:01.771Z,58.85
2022-12-26T09:59:51.427Z,59.08
2022-12-26T10:02:37.403Z,59.07
2022-12-26T10:05:51.021Z,59.02
2022-12-26T10:09:01.790Z,58.76
2022-12-26T10:12:04.046Z,58.85
2022-12-26T10:15:27.540Z,58.60
2022-12-26T10:18:23.035Z,58.91
2022-12-26T10:21:15.030Z,59.10
2022-12-26T10:24:05.375Z,58.71
2022-12-26T10:27:02.456Z,58.78
2022-12-26T10:29:58.848Z,58.42
2022-12-26T10:32:48.513Z,58.67
2022-12-26T10:35:45.664Z,59.00
2022-12-26T10:38:41.001Z,58.76
2022-12-26T10:41:36.017Z,58.99
2022-12-26T10:44:27.384Z,58.90
2022-12-26T10:47:16.944Z,58.87
2022-12-26T10:50:03.365Z,58.65
2022-12-26T10:52:49.767Z,59.60
2022-12-26T10:55:35.840Z,59.09
2022-12-26T10:58:26.425Z,59.08
2022-12-26T11:01:36.454Z,58.86
2022-12-26T11:05:02.223Z,58.90
2022-12-26T11:07:36.244Z,59.10
2022-12-26T11:10:25.167Z,59.47
2022-12-26T11:13:19.116Z,59.51
2022-12-26T11:16:05.718Z,59.72
2022-12-26T11:18:53.653Z,59.39
2022-12-26T11:21:39.527Z,59.12
2022-12-26T11:24:25.242Z,59.27
2022-12-26T11:27:20.481Z,59.59
2022-12-26T11:30:12.604Z,58.84
2022-12-26T11:33:18.540Z,59.15
2022-12-26T11:36:07.722Z,58.74
2022-12-26T11:39:24.016Z,58.91
2022-12-26T11:42:20.114Z,59.15
2022-12-26T11:45:11.296Z,58.75
2022-12-26T11:48:00.034Z,59.01
2022-12-26T11:50:46.609Z,58.91
2022-12-26T11:53:34.922Z,58.74
2022-12-26T11:56:26.274Z,59.49
2022-12-26T11:59:23.708Z,59.19
2022-12-26T12:02:23.153Z,59.41
2022-12-26T12:05:29.116Z,59.16
2022-12-26T12:08:16.414Z,59.21
2022-12-26T12:11:21.121Z,59.38
2022-12-26T12:14:30.670Z,59.33
2022-12-26T12:17:38.571Z,59.94
2022-12-26T12:20:51.821Z,59.55
2022-12-26T12:24:15.122Z,59.72
2022-12-26T12:27:09.556Z,59.64
2022-12-26T12:30:13.782Z,59.87
2022-12-26T12:33:11.761Z,59.45
2022-12-26T12:36:10.153Z,59.56
2022-12-26T12:39:12.917Z,60.04
2022-12-26T12:42:29.887Z,60.02
2022-12-26T12:45:27.153Z,59.91
2022-12-26T12:48:38.610Z,59.80
2022-12-26T12:51:37.393Z,60.11
2022-12-26T12:54:34.462Z,59.99
2022-12-26T12:57:58.014Z,61.74
2022-12-26T13:00:55.026Z,64.47
2022-12-26T13:03:45.963Z,62.71
2022-12-26T13:06:42.542Z,58.96
2022-12-26T13:09:50.879Z,54.82
2022-12-26T13:12:39.306Z,50.95
2022-12-26T13:15:32.375Z,48.08
2022-12-26T13:18:24.224Z,45.77
2022-12-26T13:21:12.460Z,44.19
2022-12-26T13:24:24.650Z,43.29
2022-12-26T13:27:21.727Z,42.69
2022-12-26T13:30:16.311Z,42.43
2022-12-26T13:33:03.954Z,42.45
2022-12-26T13:35:52.801Z,42.29
2022-12-26T13:38:56.878Z,42.28
2022-12-26T13:42:11.124Z,42.23
2022-12-26T13:45:35.308Z,43.40
2022-12-26T13:48:21.247Z,44.84
2022-12-26T13:51:43.846Z,46.05
2022-12-26T13:54:30.499Z,47.17
2022-12-26T13:57:34.468Z,48.12
2022-12-26T14:00:25.317Z,49.08
2022-12-26T14:03:38.383Z,49.46
2022-12-26T14:06:30.087Z,50.51
2022-12-26T14:09:31.210Z,50.83
2022-12-26T14:12:49.141Z,50.97
2022-12-26T14:15:47.267Z,51.69
2022-12-26T14:18:43.061Z,51.84
2022-12-26T14:21:57.571Z,52.25
2022-12-26T14:25:08.415Z,52.51
2022-12-26T14:28:04.794Z,52.64
2022-12-26T14:30:54.519Z,52.89
2022-12-26T14:34:13.100Z,53.30
2022-12-26T14:37:21.161Z,53.44
2022-12-26T14:40:30.324Z,53.21
2022-12-26T14:43:34.530Z,53.80
2022-12-26T14:46:35.467Z,53.47
2022-12-26T14:49:35.395Z,53.63
2022-12-26T14:52:24.761Z,53.72
2022-12-26T14:55:40.193Z,54.11
2022-12-26T14:58:36.421Z,54.21
2022-12-26T15:01:22.376Z,54.47
2022-12-26T15:04:41.514Z,53.94
2022-12-26T15:07:58.288Z,54.73
2022-12-26T15:11:08.222Z,54.52
2022-12-26T15:14:22.244Z,54.58
2022-12-26T15:17:08.692Z,54.77
2022-12-26T15:19:54.841Z,54.62
2022-12-26T15:22:59.274Z,54.88
2022-12-26T15:26:10.032Z,55.44
2022-12-26T15:29:17.200Z,55.22
2022-12-26T15:32:14.272Z,54.92
2022-12-26T15:35:34.930Z,55.91
2022-12-26T15:38:41.681Z,55.20
2022-12-26T15:41:42.614Z,55.04
2022-12-26T15:44:35.225Z,54.83
2022-12-26T15:47:54.532Z,55.43
2022-12-26T15:51:22.515Z,55.92
2022-12-26T15:54:44.046Z,55.75
2022-12-26T15:57:41.373Z,55.49
2022-12-26T16:00:31.179Z,55.52
2022-12-26T16:03:29.570Z,55.72
2022-12-26T16:06:43.441Z,55.64
2022-12-26T16:09:47.820Z,56.02
2022-12-26T16:12:35.853Z,55.44
2022-12-26T16:15:25.152Z,55.44
2022-12-26T16:18:20.804Z,55.58
2022-12-26T16:21:25.396Z,55.38
2022-12-26T16:24:13.011Z,55.67
2022-12-26T16:27:02.071Z,55.77
2022-12-26T16:29:51.434Z,55.57
2022-12-26T16:32:38.970Z,55.67
2022-12-26T16:35:39.404Z,55.94
2022-12-26T16:38:28.185Z,55.87
2022-12-26T16:41:23.327Z,55.88
2022-12-26T16:44:31.179Z,55.73
2022-12-26T16:47:17.219Z,55.86
2022-12-26T16:50:05.233Z,56.34
2022-12-26T16:53:19.972Z,56.02
2022-12-26T16:56:29.416Z,56.44
2022-12-26T16:59:18.501Z,56.11
2022-12-26T17:02:04.782Z,56.18
2022-12-26T17:04:58.256Z,56.24
2022-12-26T17:07:45.791Z,56.17
2022-12-26T17:10:34.981Z,56.56
2022-12-26T17:13:24.608Z,56.15
2022-12-26T17:16:10.908Z,56.32
2022-12-26T17:19:08.944Z,56.20
2022-12-26T17:22:19.086Z,56.62
2022-12-26T17:25:17.146Z,56.47
2022-12-26T17:28:09.763Z,56.18
2022-12-26T17:30:56.012Z,56.77
2022-12-26T17:33:47.664Z,56.49
2022-12-26T17:39:40.312Z,56.15
2022-12-26T17:42:26.353Z,56.29
2022-12-26T17:45:17.991Z,56.63
2022-12-26T17:48:04.204Z,56.40
2022-12-26T17:50:55.287Z,56.45
2022-12-26T17:53:42.171Z,56.25
2022-12-26T17:56:28.168Z,56.52
2022-12-26T17:59:14.448Z,56.85
2022-12-26T18:02:00.558Z,56.65
2022-12-26T18:04:47.471Z,56.46
2022-12-26T18:07:33.391Z,56.53
2022-12-26T18:10:22.701Z,56.60
2022-12-26T18:13:16.290Z,56.98
2022-12-26T18:16:02.553Z,57.02
2022-12-26T18:18:48.736Z,56.64
2022-12-26T18:21:34.528Z,56.50
2022-12-26T18:24:20.655Z,56.83
2022-12-26T18:27:07.029Z,56.77
2022-12-26T18:29:53.336Z,57.10
2022-12-26T18:32:44.413Z,57.11
2022-12-26T18:35:30.805Z,57.13
2022-12-26T18:38:18.930Z,56.87
2022-12-26T18:41:05.200Z,56.67
2022-12-26T18:43:51.346Z,56.77
2022-12-26T18:46:37.627Z,56.97
2022-12-26T18:49:23.449Z,57.13
2022-12-26T18:52:09.919Z,57.22
2022-12-26T18:54:55.723Z,56.78
2022-12-26T18:57:41.786Z,56.63
2022-12-26T19:00:27.826Z,56.79
2022-12-26T19:03:13.830Z,57.12
2022-12-26T19:05:59.678Z,56.95
2022-12-26T19:08:45.633Z,56.97
2022-12-26T19:11:31.466Z,57.10
2022-12-26T19:14:20.530Z,57.07
2022-12-26T19:17:06.516Z,56.96
2022-12-26T19:19:52.608Z,56.80
2022-12-26T19:22:38.564Z,57.41
2022-12-26T19:25:25.762Z,57.56
2022-12-26T19:28:11.809Z,57.62
2022-12-26T19:30:57.714Z,57.47
2022-12-26T19:33:43.624Z,56.89
2022-12-26T19:36:29.920Z,56.66
2022-12-26T19:39:15.890Z,56.67
2022-12-26T19:42:01.729Z,57.04
2022-12-26T19:44:48.135Z,57.36
2022-12-26T19:47:34.830Z,57.01
2022-12-26T19:50:20.520Z,57.06
2022-12-26T19:53:06.307Z,57.21
2022-12-26T19:55:57.548Z,57.07
2022-12-26T19:58:45.130Z,57.39
2022-12-26T20:01:32.042Z,56.74
2022-12-26T20:04:18.447Z,57.24
2022-12-26T20:07:05.407Z,56.94
2022-12-26T20:09:51.390Z,57.11
2022-12-26T20:12:37.437Z,57.32
2022-12-26T20:15:23.271Z,57.51
2022-12-26T20:18:13.594Z,57.07
2022-12-26T20:21:00.888Z,57.08
2022-12-26T20:23:47.118Z,57.44
2022-12-26T20:26:33.541Z,57.29
2022-12-26T20:29:19.885Z,57.26
2022-12-26T20:32:05.774Z,56.98
2022-12-26T20:34:52.070Z,57.55
2022-12-26T20:37:38.041Z,57.42
2022-12-26T20:40:25.479Z,57.26
2022-12-26T20:43:11.727Z,57.26
2022-12-26T20:46:00.776Z,57.42
2022-12-26T20:48:50.448Z,57.44
2022-12-26T20:51:38.625Z,56.98
2022-12-26T20:54:24.940Z,57.52
2022-12-26T20:57:10.967Z,57.16
2022-12-26T20:59:57.016Z,57.68
2022-12-26T21:02:43.012Z,57.58
2022-12-26T21:05:29.257Z,57.23
2022-12-26T21:08:14.978Z,57.29
2022-12-26T21:11:11.577Z,57.50
2022-12-26T21:14:00.420Z,57.21
2022-12-26T21:16:58.256Z,57.28
2022-12-26T21:19:45.180Z,57.58
2022-12-26T21:22:31.204Z,57.15
2022-12-26T21:25:17.148Z,57.70
2022-12-26T21:28:03.636Z,57.39
2022-12-26T21:30:49.792Z,57.29
2022-12-26T21:33:42.206Z,57.44
2022-12-26T21:36:30.556Z,57.28
2022-12-26T21:39:16.657Z,57.22
2022-12-26T21:42:02.642Z,57.30
2022-12-26T21:44:48.625Z,57.56
2022-12-26T21:47:34.542Z,57.21
2022-12-26T21:50:20.625Z,57.31
2022-12-26T21:53:07.332Z,59.11
2022-12-26T21:55:53.340Z,58.07
2022-12-26T21:58:58.365Z,57.65
2022-12-26T22:01:44.490Z,58.16
2022-12-26T22:04:30.347Z,57.82
2022-12-26T22:07:16.035Z,57.80
2022-12-26T22:10:03.048Z,57.80
2022-12-26T22:12:57.725Z,57.76
2022-12-26T22:16:03.891Z,58.07
2022-12-26T22:18:49.964Z,57.91
2022-12-26T22:21:35.984Z,57.94
2022-12-26T22:24:22.508Z,57.92
2022-12-26T22:27:08.287Z,57.42
2022-12-26T22:29:54.154Z,57.89
2022-12-26T22:32:40.083Z,57.77
2022-12-26T22:35:25.930Z,57.41
2022-12-26T22:38:11.866Z,57.81
2022-12-26T22:40:58.891Z,57.65
2022-12-26T22:43:45.382Z,57.82
2022-12-26T22:46:31.687Z,57.42
2022-12-26T22:49:17.409Z,57.44
2022-12-26T22:52:03.414Z,57.56
2022-12-26T22:54:49.378Z,57.36
2022-12-26T22:57:35.186Z,57.51
2022-12-26T23:00:21.118Z,58.11
2022-12-26T23:03:07.348Z,57.70
2022-12-26T23:05:54.383Z,58.05
2022-12-26T23:08:40.449Z,58.00
2022-12-26T23:11:34.473Z,57.47
2022-12-26T23:14:21.354Z,58.04
2022-12-26T23:17:10.791Z,57.84
2022-12-26T23:20:15.485Z,57.47
2022-12-26T23:23:01.772Z,58.07
2022-12-26T23:25:48.132Z,58.14
2022-12-26T23:28:52.577Z,57.41
2022-12-26T23:31:38.690Z,57.72
2022-12-26T23:34:24.503Z,58.00
2022-12-26T23:37:10.235Z,57.93
2022-12-26T23:39:56.125Z,57.98
2022-12-26T23:42:42.060Z,57.82
2022-12-26T23:45:27.805Z,57.93
2022-12-26T23:48:13.985Z,57.92
2022-12-26T23:51:04.989Z,58.00
2022-12-26T23:53:50.813Z,57.73
2022-12-26T23:56:37.498Z,57.92
2022-12-26T23:59:23.789Z,58.10
